Terminal Aerodrome Forecast
Issued by NWS Lake Charles, LA

Home | Current Version | Previous Version | Text Only | Print | Product List | Glossary On
Versions: 1 2 3 4 5 6 7 8 9 10 11 12 13 14 15 16 17 18
000
FTUS44 KLCH 261353 AAA
TAFBPT
TAF AMD
KBPT 261353Z 2614/2712 10004KT P6SM BKN020
     FM261600 16012G18KT P6SM BKN015
     FM261800 16015G20KT P6SM SCT025
     FM270100 16010KT P6SM BKN015
     FM270300 15010KT 3SM BR OVC007=

USA.gov is the U.S. government's official web portal to all federal, state and local government web resources and services.